Time;durP1;ratioP1;P1;durP2;ratioP2;P2;SDS_P1;SDS_P2;PMS_P1;PMS_P2;Temp;Humidity;BMP_temperature;BMP_pressure;BME280_temperature;BME280_humidity;BME280_pressure;Samples;Min_cycle;Max_cycle;Signal;HPM_P1;HPM_P2
2021/01/29 00:01:26;;;;;;;32.55;10.25;;;5.40;99.90;;;;;;5036197;28;20479;-74
2021/01/29 00:03:52;;;;;;;28.92;9.90;;;5.40;99.90;;;;;;5053867;28;20036;-74
2021/01/29 00:06:18;;;;;;;25.67;10.38;;;5.50;99.90;;;;;;5036376;28;20543;-74
2021/01/29 00:08:43;;;;;;;31.45;10.38;;;5.40;99.90;;;;;;5045624;28;20112;-74
2021/01/29 00:11:09;;;;;;;33.03;11.00;;;5.50;99.90;;;;;;5033548;28;20025;-74
2021/01/29 00:13:35;;;;;;;30.42;10.02;;;5.40;99.90;;;;;;5016302;28;20053;-74
2021/01/29 00:16:00;;;;;;;32.88;9.95;;;5.50;99.90;;;;;;5033925;28;20071;-74
2021/01/29 00:18:26;;;;;;;31.42;10.35;;;5.50;99.90;;;;;;5033751;28;20049;-74
2021/01/29 00:20:52;;;;;;;36.47;10.65;;;5.50;99.90;;;;;;5033916;28;20039;-74
2021/01/29 00:23:18;;;;;;;59.75;11.98;;;5.50;99.90;;;;;;5040814;28;20562;-74
2021/01/29 00:25:52;;;;;;;23.98;8.82;;;5.50;99.90;;;;;;5035963;28;20479;-74
2021/01/29 00:28:18;;;;;;;27.63;10.30;;;5.60;99.90;;;;;;5034843;28;20106;-74
2021/01/29 00:30:45;;;;;;;30.23;10.18;;;5.60;99.90;;;;;;5039031;28;20024;-74
2021/01/29 00:33:13;;;;;;;29.55;9.90;;;5.60;99.90;;;;;;5055350;28;20536;-74
2021/01/29 00:35:39;;;;;;;30.08;10.10;;;5.60;99.90;;;;;;5038054;28;20105;-74
2021/01/29 00:38:06;;;;;;;34.30;10.55;;;5.60;99.90;;;;;;5037566;28;20116;-74
2021/01/29 00:40:33;;;;;;;29.17;9.32;;;5.60;99.90;;;;;;5037373;28;20022;-74
2021/01/29 00:42:59;;;;;;;27.70;10.20;;;5.60;99.90;;;;;;5049437;28;20033;-74
2021/01/29 00:45:28;;;;;;;29.08;11.27;;;5.60;99.90;;;;;;5027688;28;20483;-74
2021/01/29 00:47:55;;;;;;;30.15;10.43;;;5.60;99.90;;;;;;5027937;28;20029;-74
2021/01/29 00:50:20;;;;;;;33.15;9.27;;;5.60;99.90;;;;;;5044644;28;20101;-74
2021/01/29 00:52:46;;;;;;;23.95;9.02;;;5.70;99.90;;;;;;5037478;28;20096;-74
2021/01/29 00:55:14;;;;;;;28.05;9.68;;;5.70;99.90;;;;;;5037481;28;20013;-75
2021/01/29 00:57:40;;;;;;;32.08;10.65;;;5.70;99.90;;;;;;5037241;28;20049;-74
2021/01/29 01:00:08;;;;;;;28.63;10.18;;;5.70;99.90;;;;;;5019035;28;20442;-72
2021/01/29 01:02:34;;;;;;;33.20;11.37;;;5.70;99.90;;;;;;5037388;28;20052;-75
2021/01/29 01:05:00;;;;;;;29.13;10.77;;;5.70;99.90;;;;;;5019295;28;20379;-72
2021/01/29 01:07:25;;;;;;;29.73;10.95;;;5.70;99.90;;;;;;5040625;28;20021;-72
2021/01/29 01:09:51;;;;;;;28.42;9.15;;;5.80;99.90;;;;;;5056488;28;20387;-73
2021/01/29 01:12:16;;;;;;;24.08;9.18;;;5.80;99.90;;;;;;5029924;28;20477;-74
2021/01/29 01:14:42;;;;;;;26.15;10.40;;;5.80;99.90;;;;;;5050252;28;20025;-73
2021/01/29 01:17:08;;;;;;;25.98;8.90;;;5.80;99.90;;;;;;5020646;28;20368;-73
2021/01/29 01:19:35;;;;;;;24.90;8.38;;;5.80;99.90;;;;;;5038728;28;20045;-73
2021/01/29 01:22:03;;;;;;;29.15;9.65;;;5.80;99.90;;;;;;5039007;28;20035;-73
2021/01/29 01:24:29;;;;;;;27.80;10.32;;;5.90;99.90;;;;;;5039805;28;20022;-73
2021/01/29 01:26:54;;;;;;;26.48;9.60;;;5.90;99.90;;;;;;5036395;28;20040;-74
2021/01/29 01:29:20;;;;;;;21.95;8.48;;;5.90;99.90;;;;;;5036484;28;20030;-73
2021/01/29 01:31:45;;;;;;;28.45;8.82;;;5.90;99.90;;;;;;5018763;28;20044;-74
2021/01/29 01:34:11;;;;;;;28.15;9.45;;;5.90;99.90;;;;;;5036259;28;20030;-73
2021/01/29 01:36:36;;;;;;;23.95;9.85;;;5.90;99.90;;;;;;5036667;28;20033;-73
2021/01/29 01:39:02;;;;;;;22.88;9.20;;;5.90;99.90;;;;;;5052403;28;20088;-73
2021/01/29 01:41:28;;;;;;;25.25;9.25;;;6.00;99.90;;;;;;5055262;28;20025;-73
2021/01/29 01:43:53;;;;;;;23.85;8.60;;;6.00;99.90;;;;;;5038347;28;20051;-74
2021/01/29 01:46:20;;;;;;;23.77;8.30;;;6.00;99.90;;;;;;5056192;28;20052;-74
2021/01/29 01:49:09;;;;;;;21.88;9.20;;;6.00;99.90;;;;;;5024317;28;20606;-74
2021/01/29 01:51:38;;;;;;;;;;;6.00;99.90;;;;;;5035913;28;20403;-74
2021/01/29 01:54:30;;;;;;;19.45;6.55;;;6.00;99.90;;;;;;5036132;28;19912;-74
2021/01/29 01:56:59;;;;;;;19.40;7.60;;;6.10;99.90;;;;;;5031896;28;20124;-74
2021/01/29 01:59:32;;;;;;;19.80;7.25;;;6.10;99.90;;;;;;5038935;28;20091;-73
2021/01/29 02:01:58;;;;;;;16.75;6.95;;;6.10;99.90;;;;;;5018348;28;20028;-73
2021/01/29 02:04:27;;;;;;;17.95;7.63;;;6.20;99.90;;;;;;5036216;28;20017;-74
2021/01/29 02:07:16;;;;;;;16.42;6.72;;;6.20;99.90;;;;;;5036050;28;20021;-74
2021/01/29 02:09:45;;;;;;;14.88;6.60;;;6.20;99.90;;;;;;5036037;28;20025;-73
2021/01/29 02:12:10;;;;;;;17.48;6.90;;;6.20;99.90;;;;;;5018287;28;20111;-73
2021/01/29 02:14:36;;;;;;;17.67;5.88;;;6.20;99.90;;;;;;5022651;28;20570;-73
2021/01/29 02:17:19;;;;;;;15.88;6.53;;;6.30;99.90;;;;;;5055600;28;20025;-73
2021/01/29 02:20:08;;;;;;;14.20;5.40;;;6.30;99.90;;;;;;5038114;28;20018;-73
2021/01/29 02:23:09;;;;;;;17.23;6.95;;;6.30;99.90;;;;;;5053974;28;20449;-73
2021/01/29 02:26:16;;;;;;;14.15;6.15;;;6.30;99.90;;;;;;4974667;28;20485;-74
2021/01/29 02:29:40;;;;;;;13.23;6.13;;;6.30;99.90;;;;;;5017305;28;20030;-73
2021/01/29 02:32:43;;;;;;;13.85;5.85;;;6.40;99.90;;;;;;5003950;28;20041;-73
2021/01/29 02:35:31;;;;;;;15.38;5.38;;;6.40;99.90;;;;;;5034749;28;20503;-73
2021/01/29 02:38:21;;;;;;;16.67;5.65;;;6.40;99.90;;;;;;5014363;28;20061;-73
2021/01/29 02:41:14;;;;;;;16.55;6.18;;;6.50;99.90;;;;;;5035134;28;20428;-73
2021/01/29 02:44:17;;;;;;;11.70;5.40;;;6.50;99.90;;;;;;5034783;28;20033;-73
2021/01/29 02:46:55;;;;;;;15.40;5.82;;;6.50;99.90;;;;;;5034588;28;20033;-73
2021/01/29 02:49:40;;;;;;;11.90;5.45;;;6.50;99.90;;;;;;5017098;28;20053;-73
2021/01/29 02:52:21;;;;;;;12.43;5.53;;;6.50;99.90;;;;;;5034209;28;20079;-73
2021/01/29 02:55:15;;;;;;;20.08;7.05;;;6.60;99.90;;;;;;5034408;28;20072;-73
2021/01/29 02:57:50;;;;;;;16.73;6.75;;;6.60;99.90;;;;;;5009347;28;20129;-73
2021/01/29 03:00:22;;;;;;;19.10;6.10;;;6.60;99.90;;;;;;5034791;28;20025;-74
2021/01/29 03:03:01;;;;;;;18.10;6.05;;;6.60;99.90;;;;;;5017370;28;20021;-73
2021/01/29 03:05:35;;;;;;;16.45;6.22;;;6.60;99.90;;;;;;5016641;28;20030;-73
2021/01/29 03:08:23;;;;;;;17.60;6.25;;;6.60;99.90;;;;;;5016472;28;20026;-74
2021/01/29 03:11:08;;;;;;;16.30;6.25;;;6.70;99.90;;;;;;5017751;28;20072;-73
2021/01/29 03:13:47;;;;;;;14.70;6.30;;;6.70;99.90;;;;;;5034329;28;20487;-74
2021/01/29 03:16:21;;;;;;;13.82;6.32;;;7.20;99.90;;;;;;5034796;28;20505;-74
2021/01/29 03:19:28;;;;;;;14.65;6.03;;;6.80;99.90;;;;;;5034224;28;20487;-74
2021/01/29 03:22:05;;;;;;;14.38;6.45;;;6.80;99.90;;;;;;5042557;28;20044;-74
2021/01/29 03:24:42;;;;;;;15.38;6.53;;;6.90;99.90;;;;;;5054767;28;20025;-74
2021/01/29 03:27:11;;;;;;;18.88;6.15;;;6.80;99.90;;;;;;5036576;28;20033;-73
2021/01/29 03:29:42;;;;;;;20.30;7.00;;;6.90;99.90;;;;;;5054218;28;20095;-73
2021/01/29 03:32:12;;;;;;;18.23;6.75;;;6.80;99.90;;;;;;5036573;28;20028;-73
2021/01/29 03:34:46;;;;;;;14.70;6.75;;;6.90;99.90;;;;;;5036374;28;20021;-73
2021/01/29 03:37:22;;;;;;;16.75;5.72;;;6.90;99.90;;;;;;5036887;28;20083;-73
2021/01/29 03:39:48;;;;;;;17.70;7.00;;;7.00;99.90;;;;;;5054140;28;20366;-74
2021/01/29 03:42:28;;;;;;;14.57;6.40;;;7.00;99.90;;;;;;5036551;28;20024;-75
2021/01/29 03:45:02;;;;;;;17.38;5.57;;;7.00;99.90;;;;;;5054061;28;20132;-74
2021/01/29 03:47:33;;;;;;;16.10;7.03;;;7.00;99.90;;;;;;5037295;28;20437;-73
2021/01/29 03:50:28;;;;;;;13.02;5.88;;;7.00;99.90;;;;;;5049245;28;20393;-73
2021/01/29 03:53:26;;;;;;;12.20;5.32;;;7.00;99.90;;;;;;5023175;28;20030;-73
2021/01/29 03:56:27;;;;;;;15.48;6.57;;;7.10;99.90;;;;;;5034224;28;20021;-73
2021/01/29 03:59:09;;;;;;;14.30;5.18;;;7.10;99.90;;;;;;5034562;28;20132;-73
2021/01/29 04:01:44;;;;;;;12.27;5.18;;;7.20;99.90;;;;;;5034880;28;20034;-73
2021/01/29 04:04:29;;;;;;;11.38;5.05;;;7.20;99.90;;;;;;5034024;28;20109;-73
2021/01/29 04:07:26;;;;;;;12.13;5.13;;;7.30;99.90;;;;;;5034889;28;20118;-73
2021/01/29 04:09:55;;;;;;;15.18;5.32;;;7.30;99.90;;;;;;5015679;28;20503;-73
2021/01/29 04:12:39;;;;;;;12.15;4.82;;;7.30;99.90;;;;;;5033911;28;20021;-73
2021/01/29 04:15:13;;;;;;;12.07;4.82;;;7.40;99.90;;;;;;5016104;28;20495;-73
2021/01/29 04:18:11;;;;;;;11.85;5.03;;;7.40;99.90;;;;;;5034166;28;20032;-73
2021/01/29 04:20:46;;;;;;;9.57;4.60;;;7.40;99.90;;;;;;5039778;28;20087;-73
2021/01/29 04:23:23;;;;;;;14.57;5.15;;;7.40;99.90;;;;;;5053844;28;20166;-73
2021/01/29 04:26:17;;;;;;;10.52;4.35;;;7.40;99.90;;;;;;5055260;28;20155;-73
2021/01/29 04:28:47;;;;;;;13.57;5.68;;;7.40;99.90;;;;;;5053662;28;20041;-73
2021/01/29 04:31:15;;;;;;;12.73;5.20;;;7.40;99.90;;;;;;5026066;28;20393;-73
2021/01/29 04:33:50;;;;;;;16.70;7.07;;;7.40;99.90;;;;;;5016984;28;20023;-74
2021/01/29 04:36:20;;;;;;;11.75;5.60;;;7.50;99.90;;;;;;5034245;28;20025;-74
2021/01/29 04:38:50;;;;;;;15.10;6.18;;;7.50;99.90;;;;;;5016155;28;20037;-74
2021/01/29 04:41:31;;;;;;;17.13;6.38;;;7.50;99.90;;;;;;5026975;28;20119;-74
2021/01/29 04:44:12;;;;;;;14.27;6.20;;;7.60;99.90;;;;;;5035855;28;20029;-73
2021/01/29 04:46:59;;;;;;;15.13;6.60;;;7.60;99.90;;;;;;5053977;28;20029;-74
2021/01/29 04:50:04;;;;;;;18.17;6.57;;;7.60;99.90;;;;;;5035763;28;20399;-73
2021/01/29 04:53:20;;;;;;;18.63;6.78;;;7.70;99.90;;;;;;5033891;28;20053;-73
2021/01/29 04:55:58;;;;;;;14.40;6.20;;;7.80;99.90;;;;;;4949975;28;20033;-73
2021/01/29 04:58:48;;;;;;;18.10;7.45;;;8.00;99.90;;;;;;5033732;28;20383;-75
2021/01/29 05:01:52;;;;;;;17.98;5.60;;;8.10;99.90;;;;;;5034295;28;20053;-73
2021/01/29 05:04:20;;;;;;;11.35;5.38;;;8.20;99.90;;;;;;5033890;28;20029;-73
2021/01/29 05:07:07;;;;;;;18.17;6.13;;;8.40;99.90;;;;;;5033724;28;20021;-73
2021/01/29 05:09:47;;;;;;;11.48;4.70;;;8.40;99.90;;;;;;5042205;28;20482;-73
2021/01/29 05:12:46;;;;;;;9.48;4.35;;;8.50;99.90;;;;;;5035558;28;20033;-73
2021/01/29 05:15:32;;;;;;;12.05;4.32;;;8.60;99.90;;;;;;5053906;28;20025;-73
2021/01/29 05:18:13;;;;;;;8.15;3.03;;;8.60;99.90;;;;;;5039627;28;20100;-73
2021/01/29 05:21:00;;;;;;;6.57;2.55;;;8.70;99.90;;;;;;5021087;28;20033;-72
2021/01/29 05:23:44;;;;;;;8.48;3.83;;;8.70;99.90;;;;;;5037026;28;20429;-72
2021/01/29 05:26:37;;;;;;;9.70;3.70;;;8.70;99.90;;;;;;5036986;28;20383;-72
2021/01/29 05:29:40;;;;;;;5.90;2.72;;;8.70;99.90;;;;;;5023438;28;20433;-72
2021/01/29 05:32:30;;;;;;;5.50;1.90;;;8.80;99.90;;;;;;5038952;28;20029;-72
2021/01/29 05:35:19;;;;;;;6.30;1.08;;;8.80;99.90;;;;;;5056524;28;20029;-73
2021/01/29 05:38:22;;;;;;;3.15;1.05;;;8.80;99.90;;;;;;5056715;28;20041;-73
2021/01/29 05:41:13;;;;;;;3.92;0.93;;;8.80;99.90;;;;;;5020066;28;20038;-73
2021/01/29 05:44:08;;;;;;;1.67;0.57;;;8.80;99.90;;;;;;5019038;28;20025;-73
2021/01/29 05:47:09;;;;;;;1.73;0.35;;;8.80;99.90;;;;;;5037053;28;20384;-73
2021/01/29 05:49:59;;;;;;;1.17;0.25;;;8.80;99.90;;;;;;5041193;28;20033;-72
2021/01/29 05:52:24;;;;;;;2.70;0.10;;;8.70;99.90;;;;;;5056150;28;20020;-73
2021/01/29 05:54:55;;;;;;;1.27;0.20;;;8.70;99.90;;;;;;5056169;28;20025;-73
2021/01/29 05:57:36;;;;;;;0.68;0.00;;;8.70;99.90;;;;;;5056059;28;20380;-73
2021/01/29 06:00:48;;;;;;;3.63;0.10;;;8.80;99.90;;;;;;5039620;28;20427;-73
2021/01/29 06:03:33;;;;;;;1.67;0.10;;;8.80;99.90;;;;;;5034698;28;20061;-73
2021/01/29 06:06:04;;;;;;;2.45;0.00;;;8.80;99.90;;;;;;5018362;28;20030;-73
2021/01/29 06:08:41;;;;;;;1.35;0.00;;;8.70;99.90;;;;;;5035727;28;20028;-73
2021/01/29 06:11:25;;;;;;;12.05;0.98;;;8.70;99.90;;;;;;5038740;28;20418;-73
2021/01/29 06:14:38;;;;;;;1.55;0.32;;;8.70;99.90;;;;;;5046790;28;20072;-73
2021/01/29 06:17:40;;;;;;;2.80;0.28;;;8.70;99.90;;;;;;5000161;28;20026;-72
2021/01/29 06:20:36;;;;;;;2.70;0.00;;;8.70;99.90;;;;;;5017854;28;20021;-72
2021/01/29 06:23:22;;;;;;;4.13;0.52;;;8.70;99.90;;;;;;5053746;28;20071;-72
2021/01/29 06:26:11;;;;;;;6.35;0.73;;;8.70;99.90;;;;;;5055631;28;20024;-72
2021/01/29 06:28:51;;;;;;;3.20;0.15;;;8.70;99.90;;;;;;5055517;28;20020;-73
2021/01/29 06:31:51;;;;;;;3.83;0.00;;;8.60;99.90;;;;;;5051481;28;20388;-73
2021/01/29 06:34:37;;;;;;;5.43;0.63;;;8.60;99.90;;;;;;5035424;28;20025;-73
2021/01/29 06:37:17;;;;;;;4.93;0.10;;;8.60;99.90;;;;;;5035472;28;20029;-73
2021/01/29 06:40:08;;;;;;;1.90;0.05;;;8.60;99.90;;;;;;5035641;28;20104;-73
2021/01/29 06:42:56;;;;;;;6.25;0.10;;;8.50;99.90;;;;;;5042680;28;20112;-73
2021/01/29 06:45:53;;;;;;;1.85;0.00;;;8.50;99.90;;;;;;5025229;28;20558;-76
2021/01/29 06:48:43;;;;;;;2.00;0.65;;;8.50;99.90;;;;;;5034933;28;20022;-73
2021/01/29 06:51:24;;;;;;;7.00;0.22;;;8.50;99.90;;;;;;5035903;28;20028;-72
2021/01/29 06:54:02;;;;;;;5.47;0.68;;;8.50;99.90;;;;;;5035191;28;20485;-73
2021/01/29 06:56:50;;;;;;;2.22;0.45;;;8.50;99.90;;;;;;5048079;28;20435;-73
2021/01/29 06:59:46;;;;;;;8.70;0.47;;;8.50;99.90;;;;;;5055255;28;20550;-74
2021/01/29 07:02:39;;;;;;;7.93;1.08;;;8.50;99.90;;;;;;5036036;28;20025;-74
2021/01/29 07:05:17;;;;;;;6.72;0.68;;;8.50;99.90;;;;;;5052797;28;20055;-75
2021/01/29 07:08:00;;;;;;;3.88;0.88;;;8.60;99.90;;;;;;5048612;28;20497;-74
2021/01/29 07:10:47;;;;;;;3.20;0.25;;;8.50;99.90;;;;;;5028235;28;20014;-74
2021/01/29 07:13:52;;;;;;;0.90;0.20;;;8.60;99.90;;;;;;5036113;28;20450;-73
2021/01/29 07:16:33;;;;;;;2.97;0.05;;;8.60;99.90;;;;;;5045178;28;20028;-73
2021/01/29 07:19:28;;;;;;;2.17;0.10;;;8.70;99.90;;;;;;5016818;28;20029;-73
2021/01/29 07:22:17;;;;;;;0.73;0.08;;;8.60;99.90;;;;;;5028585;28;20512;-73
2021/01/29 07:25:02;;;;;;;3.00;0.55;;;8.70;99.90;;;;;;5034309;28;20029;-73
2021/01/29 07:27:43;;;;;;;2.30;0.63;;;8.70;99.90;;;;;;5045537;28;21947;-75
2021/01/29 07:30:18;;;;;;;1.00;0.10;;;8.70;99.90;;;;;;5049103;28;20017;-74
2021/01/29 07:32:48;;;;;;;5.13;0.17;;;8.70;99.90;;;;;;5040306;28;20113;-73
2021/01/29 07:35:35;;;;;;;3.58;0.17;;;8.70;99.90;;;;;;5044550;28;20075;-72
2021/01/29 07:38:27;;;;;;;4.60;0.43;;;8.70;99.90;;;;;;5121178;23;20460;-74
2021/01/29 07:41:04;;;;;;;4.45;0.10;;;8.70;99.90;;;;;;5054179;28;20021;-74
2021/01/29 07:43:38;;;;;;;5.35;0.10;;;8.70;99.90;;;;;;5069929;28;20025;-74
2021/01/29 07:46:32;;;;;;;2.88;0.10;;;8.80;99.90;;;;;;5068716;28;20029;-75
2021/01/29 07:49:07;;;;;;;6.32;1.13;;;8.80;99.90;;;;;;5073215;28;20064;-74
2021/01/29 07:52:03;;;;;;;14.02;0.22;;;8.90;99.90;;;;;;5058552;28;20037;-74
2021/01/29 07:54:47;;;;;;;8.70;0.52;;;8.90;99.90;;;;;;5056528;28;20078;-75
2021/01/29 07:57:38;;;;;;;12.55;0.38;;;8.90;99.90;;;;;;5045653;28;20120;-74
2021/01/29 08:00:21;;;;;;;8.38;0.80;;;8.90;99.90;;;;;;5056183;28;20032;-72
2021/01/29 08:03:17;;;;;;;6.22;1.10;;;8.90;99.90;;;;;;5059330;28;20058;-72
2021/01/29 08:05:56;;;;;;;11.82;1.05;;;8.90;99.90;;;;;;5073339;28;20033;-73
2021/01/29 08:08:27;;;;;;;10.10;0.90;;;8.90;99.90;;;;;;5053084;28;20051;-72
2021/01/29 08:10:58;;;;;;;10.02;1.00;;;8.90;99.90;;;;;;5073587;28;20032;-73
2021/01/29 08:14:01;;;;;;;9.50;0.75;;;8.90;99.90;;;;;;5056132;28;20115;-74
2021/01/29 08:17:02;;;;;;;9.63;0.82;;;8.80;99.90;;;;;;5065493;28;20021;-74
2021/01/29 08:20:05;;;;;;;12.30;0.93;;;8.80;99.90;;;;;;5073192;28;20021;-74
2021/01/29 08:23:10;;;;;;;13.45;1.42;;;8.70;99.90;;;;;;5048025;28;20068;-73
2021/01/29 08:26:11;;;;;;;12.10;1.00;;;8.70;99.90;;;;;;5073882;28;20050;-74
2021/01/29 08:28:56;;;;;;;17.70;1.38;;;8.70;99.90;;;;;;5053553;28;20033;-73
2021/01/29 08:31:28;;;;;;;13.23;0.70;;;8.70;99.90;;;;;;5034241;28;20402;-72
2021/01/29 08:34:20;;;;;;;17.67;1.27;;;8.70;99.90;;;;;;5073917;28;20108;-73
2021/01/29 08:37:11;;;;;;;23.50;0.95;;;8.70;99.90;;;;;;5073511;28;20036;-72
2021/01/29 08:39:50;;;;;;;20.08;1.38;;;8.70;99.90;;;;;;5058362;28;20477;-73
2021/01/29 08:42:16;;;;;;;19.80;1.25;;;8.70;99.90;;;;;;5036296;28;20033;-71
2021/01/29 08:45:00;;;;;;;30.88;2.28;;;8.70;99.90;;;;;;5054266;28;20017;-71
2021/01/29 08:47:35;;;;;;;21.40;0.75;;;8.70;99.90;;;;;;5053886;28;20060;-71
2021/01/29 08:50:03;;;;;;;18.48;2.17;;;8.70;99.90;;;;;;5055534;28;20028;-71
2021/01/29 08:52:38;;;;;;;21.13;2.50;;;8.80;99.90;;;;;;5039617;28;20021;-71
2021/01/29 08:55:14;;;;;;;18.67;1.23;;;8.70;99.90;;;;;;5039750;28;20080;-71
2021/01/29 08:57:58;;;;;;;17.73;1.27;;;8.70;99.90;;;;;;5039434;28;20029;-71
2021/01/29 09:00:27;;;;;;;25.27;2.95;;;8.70;99.90;;;;;;5057820;28;20032;-71
2021/01/29 09:03:15;;;;;;;10.40;1.17;;;8.70;99.90;;;;;;5057126;28;20029;-71
2021/01/29 09:05:43;;;;;;;26.30;2.65;;;8.70;99.90;;;;;;5057061;28;20482;-71
2021/01/29 09:08:13;;;;;;;15.60;2.10;;;8.70;99.90;;;;;;5057475;28;20021;-71
2021/01/29 09:10:59;;;;;;;30.13;3.13;;;8.70;99.90;;;;;;5057266;28;20025;-71
2021/01/29 09:13:26;;;;;;;22.67;2.60;;;8.60;99.90;;;;;;5039509;28;20025;-72
2021/01/29 09:16:17;;;;;;;27.80;2.45;;;8.60;99.90;;;;;;5039180;28;20452;-71
2021/01/29 09:19:06;;;;;;;20.13;2.20;;;8.70;99.90;;;;;;5052145;28;20072;-74
2021/01/29 09:22:01;;;;;;;20.63;2.92;;;8.70;99.90;;;;;;5071936;28;20100;-73
2021/01/29 09:24:45;;;;;;;34.60;2.97;;;8.70;99.90;;;;;;5066196;28;20032;-73
2021/01/29 09:27:31;;;;;;;22.65;1.70;;;8.80;99.90;;;;;;5075867;28;20056;-74
2021/01/29 09:30:11;;;;;;;20.73;1.85;;;8.80;99.90;;;;;;5062786;28;20035;-74
2021/01/29 09:32:50;;;;;;;22.77;2.50;;;8.80;99.90;;;;;;5039076;28;20116;-72
2021/01/29 09:35:46;;;;;;;20.77;2.72;;;8.90;99.90;;;;;;5046992;28;20024;-71
2021/01/29 09:38:17;;;;;;;17.75;1.15;;;8.90;99.90;;;;;;5057549;28;20060;-73
2021/01/29 09:40:55;;;;;;;24.25;3.25;;;8.90;99.90;;;;;;5038562;28;20071;-73
2021/01/29 09:43:51;;;;;;;18.15;2.92;;;8.90;99.90;;;;;;5057433;28;20036;-73
2021/01/29 09:46:26;;;;;;;18.35;1.73;;;9.10;99.90;;;;;;5049686;28;20033;-73
2021/01/29 09:49:19;;;;;;;24.13;2.03;;;9.00;99.90;;;;;;5056138;28;20091;-73
2021/01/29 09:52:00;;;;;;;20.73;2.58;;;9.10;99.90;;;;;;5036889;28;20533;-70
2021/01/29 09:54:48;;;;;;;22.90;1.90;;;9.10;99.90;;;;;;5067217;28;20032;-70
2021/01/29 09:57:33;;;;;;;29.83;3.20;;;9.10;99.90;;;;;;5059363;28;20395;-72
2021/01/29 10:00:20;;;;;;;26.10;2.72;;;9.10;99.90;;;;;;5056397;28;20071;-72
2021/01/29 10:03:20;;;;;;;26.08;2.33;;;9.20;99.90;;;;;;5047439;28;20056;-72
2021/01/29 10:06:26;;;;;;;22.98;1.83;;;9.20;99.90;;;;;;5075185;28;20028;-71
2021/01/29 10:08:56;;;;;;;20.63;1.70;;;9.20;99.90;;;;;;5065192;28;20048;-71
2021/01/29 10:11:50;;;;;;;26.13;1.50;;;9.30;99.90;;;;;;5069725;28;20029;-71
2021/01/29 10:14:31;;;;;;;20.05;1.95;;;9.30;99.90;;;;;;5065328;28;20083;-72
2021/01/29 10:17:25;;;;;;;19.88;1.77;;;9.40;99.90;;;;;;5069336;28;20394;-71
2021/01/29 10:19:59;;;;;;;17.00;1.52;;;9.40;99.90;;;;;;5074346;28;20024;-71
2021/01/29 10:23:04;;;;;;;22.45;2.78;;;9.40;99.90;;;;;;5038582;28;20037;-71
2021/01/29 10:26:04;;;;;;;23.13;2.67;;;9.40;99.90;;;;;;5003823;28;20030;-71
2021/01/29 10:28:50;;;;;;;25.00;2.35;;;9.50;99.90;;;;;;4993895;28;20594;-71
2021/01/29 10:31:22;;;;;;;24.75;3.47;;;9.50;99.90;;;;;;5049750;28;20079;-71
2021/01/29 10:34:00;;;;;;;24.55;1.77;;;9.60;99.90;;;;;;5063303;28;20021;-71
2021/01/29 10:36:30;;;;;;;23.02;1.92;;;9.60;99.90;;;;;;5073322;28;20099;-72
2021/01/29 10:39:04;;;;;;;27.25;2.55;;;9.70;99.90;;;;;;5058932;28;20479;-71
2021/01/29 10:41:54;;;;;;;18.20;2.05;;;9.70;99.90;;;;;;5060228;28;20028;-71
2021/01/29 10:44:24;;;;;;;17.08;2.45;;;9.80;99.90;;;;;;5074499;28;20029;-71
2021/01/29 10:48:00;;;;;;;23.98;2.38;;;9.80;99.90;;;;;;5059824;28;20029;-71
2021/01/29 10:50:40;;;;;;;26.10;3.22;;;9.90;99.90;;;;;;4973820;28;20062;-71
2021/01/29 10:53:15;;;;;;;30.30;3.50;;;10.00;99.90;;;;;;5065698;28;20091;-71
2021/01/29 10:55:51;;;;;;;32.03;2.30;;;10.10;99.90;;;;;;5056335;28;20037;-71
2021/01/29 10:58:48;;;;;;;22.05;2.13;;;10.10;99.90;;;;;;5073854;28;20016;-71
2021/01/29 11:01:32;;;;;;;19.55;1.40;;;10.20;99.90;;;;;;5073453;28;20017;-71
2021/01/29 11:04:08;;;;;;;18.20;1.85;;;10.20;99.90;;;;;;5074519;28;20021;-71
2021/01/29 11:06:54;;;;;;;23.08;3.38;;;10.30;99.90;;;;;;5060517;28;20028;-71
2021/01/29 11:09:30;;;;;;;15.93;0.95;;;10.30;99.90;;;;;;5051901;28;20032;-73
2021/01/29 11:12:22;;;;;;;14.80;1.52;;;10.30;99.90;;;;;;5037702;28;20025;-71
2021/01/29 11:14:57;;;;;;;20.25;2.60;;;10.30;99.90;;;;;;5055085;28;20049;-71
2021/01/29 11:17:40;;;;;;;20.52;1.15;;;10.40;99.90;;;;;;5055295;28;20041;-72
2021/01/29 11:20:18;;;;;;;22.35;2.10;;;10.30;99.90;;;;;;5037053;28;20025;-71
2021/01/29 11:22:55;;;;;;;15.98;1.95;;;10.30;99.90;;;;;;5069964;28;20021;-71
2021/01/29 11:25:42;;;;;;;15.15;0.47;;;10.30;99.90;;;;;;5074926;28;20016;-71
2021/01/29 11:28:42;;;;;;;16.05;1.17;;;10.30;99.90;;;;;;5074442;28;20032;-71
2021/01/29 11:31:37;;;;;;;56.17;3.72;;;10.20;99.90;;;;;;5057070;28;20489;-72
2021/01/29 11:34:05;;;;;;;17.67;1.83;;;10.30;99.90;;;;;;5062984;28;20036;-73
2021/01/29 11:36:40;;;;;;;13.13;1.63;;;10.30;99.90;;;;;;5055583;28;20081;-73
2021/01/29 11:39:32;;;;;;;18.08;1.27;;;10.30;99.90;;;;;;5054363;28;20506;-74
2021/01/29 11:42:20;;;;;;;14.02;1.65;;;10.20;99.90;;;;;;5035566;28;20097;-75
2021/01/29 11:44:50;;;;;;;;;;;10.30;99.90;;;;;;5072372;28;20085;-73
2021/01/29 11:47:23;;;;;;;18.90;0.93;;;10.30;99.90;;;;;;5058927;28;19912;-73
2021/01/29 11:50:16;;;;;;;20.48;1.80;;;10.30;99.90;;;;;;5071445;28;20095;-73
2021/01/29 11:52:55;;;;;;;15.63;1.95;;;10.20;99.90;;;;;;5054618;28;20032;-73
2021/01/29 11:55:29;;;;;;;18.42;1.60;;;10.10;99.90;;;;;;5043650;28;20032;-75
2021/01/29 11:58:21;;;;;;;16.00;1.80;;;10.10;99.90;;;;;;5074862;28;20016;-74
2021/01/29 12:00:53;;;;;;;22.70;2.03;;;10.10;99.90;;;;;;5074395;28;20040;-74
2021/01/29 12:03:36;;;;;;;17.02;1.77;;;10.00;99.90;;;;;;5056010;28;20065;-74
2021/01/29 12:06:28;;;;;;;13.60;0.82;;;10.00;99.90;;;;;;5074007;28;20025;-74
2021/01/29 12:09:06;;;;;;;11.32;1.02;;;9.90;99.90;;;;;;5074148;28;20431;-74
2021/01/29 12:11:43;;;;;;;16.23;1.20;;;9.80;99.90;;;;;;5074851;28;20033;-72
2021/01/29 12:14:16;;;;;;;18.23;1.15;;;9.80;99.90;;;;;;5056223;28;20028;-72
2021/01/29 12:16:44;;;;;;;12.23;1.20;;;9.70;99.90;;;;;;5073864;28;20369;-73
2021/01/29 12:19:11;;;;;;;15.77;1.83;;;9.60;99.90;;;;;;5074200;28;20028;-73
2021/01/29 12:22:31;;;;;;;10.73;0.88;;;9.70;99.90;;;;;;5043229;28;20023;-72
2021/01/29 12:25:21;;;;;;;11.80;0.77;;;9.60;99.90;;;;;;4994165;28;20037;-73
2021/01/29 12:28:05;;;;;;;21.25;1.02;;;9.70;99.90;;;;;;5055276;28;20037;-73
2021/01/29 12:30:46;;;;;;;16.15;1.98;;;9.60;99.90;;;;;;5058679;28;20031;-73
2021/01/29 12:33:18;;;;;;;15.90;0.60;;;9.70;99.90;;;;;;5068423;28;20100;-75
2021/01/29 12:35:52;;;;;;;13.25;0.70;;;9.70;99.90;;;;;;5046705;28;20395;-72
2021/01/29 12:38:27;;;;;;;15.63;1.02;;;9.80;99.90;;;;;;5059289;28;20039;-73
2021/01/29 12:41:14;;;;;;;14.95;1.50;;;9.90;99.90;;;;;;5077940;28;20033;-72
2021/01/29 12:43:54;;;;;;;10.52;0.82;;;10.00;99.90;;;;;;5061558;28;20037;-72
2021/01/29 12:46:31;;;;;;;11.70;0.75;;;10.10;99.90;;;;;;5065052;28;20021;-72
2021/01/29 12:49:40;;;;;;;15.13;1.02;;;10.10;99.90;;;;;;5077683;28;20033;-72
2021/01/29 12:52:12;;;;;;;;;;;10.10;99.90;;;;;;5042328;28;20037;-72
2021/01/29 12:55:27;;;;;;;13.82;1.55;;;10.10;99.90;;;;;;5059416;28;19931;-72
2021/01/29 12:58:06;;;;;;;15.45;0.65;;;10.10;99.90;;;;;;5068928;28;20083;-72
2021/01/29 13:00:42;;;;;;;16.60;1.13;;;10.20;99.90;;;;;;5039548;28;20036;-72
2021/01/29 13:03:10;;;;;;;17.02;1.42;;;10.20;99.90;;;;;;5070487;28;20032;-72
2021/01/29 13:05:51;;;;;;;28.05;3.00;;;10.20;99.90;;;;;;5074294;28;20037;-72
2021/01/29 13:08:40;;;;;;;12.20;0.70;;;10.20;99.90;;;;;;5055760;28;20491;-73
2021/01/29 13:12:04;;;;;;;11.85;1.35;;;10.30;99.90;;;;;;5077739;28;20047;-73
2021/01/29 13:15:00;;;;;;;15.98;1.75;;;10.30;99.90;;;;;;4995700;28;20408;-72
2021/01/29 13:17:33;;;;;;;11.85;0.85;;;10.30;99.90;;;;;;4996120;28;20033;-72
2021/01/29 13:20:23;;;;;;;17.50;1.02;;;10.30;99.90;;;;;;5050594;28;20520;-72
2021/01/29 13:22:55;;;;;;;15.55;1.15;;;10.30;99.90;;;;;;5057463;28;20021;-72
2021/01/29 13:25:30;;;;;;;18.45;2.35;;;10.30;99.90;;;;;;5057832;28;20356;-72
2021/01/29 13:28:05;;;;;;;10.65;1.05;;;10.30;99.90;;;;;;5039352;28;20025;-72
2021/01/29 13:30:37;;;;;;;8.38;0.50;;;10.20;99.90;;;;;;5056743;28;20029;-72
2021/01/29 13:33:19;;;;;;;12.05;0.98;;;10.20;99.90;;;;;;5047489;28;20509;-72
2021/01/29 13:35:49;;;;;;;9.93;0.65;;;10.20;99.90;;;;;;5043080;28;20032;-72
2021/01/29 13:38:36;;;;;;;9.98;0.30;;;10.20;99.90;;;;;;5059378;28;20044;-72
2021/01/29 13:41:24;;;;;;;8.23;0.55;;;10.20;99.90;;;;;;5061209;28;20025;-72
2021/01/29 13:43:50;;;;;;;11.45;1.02;;;10.20;99.90;;;;;;5076416;28;20067;-72
2021/01/29 13:46:29;;;;;;;8.43;0.47;;;10.10;99.90;;;;;;5067652;28;20018;-72
2021/01/29 13:49:21;;;;;;;18.52;1.50;;;10.10;99.90;;;;;;5056765;28;20116;-74
2021/01/29 13:51:52;;;;;;;12.32;1.23;;;10.00;99.90;;;;;;5056937;28;20594;-73
2021/01/29 13:54:37;;;;;;;15.98;1.13;;;9.90;99.90;;;;;;5056630;28;20075;-74
2021/01/29 13:57:24;;;;;;;5.68;1.05;;;10.00;99.90;;;;;;5056238;28;20032;-73
2021/01/29 14:00:07;;;;;;;11.68;0.50;;;9.90;99.90;;;;;;5056774;28;20025;-74
2021/01/29 14:02:42;;;;;;;12.25;0.95;;;9.90;99.90;;;;;;5038607;28;20029;-73